ADDS METAR Data INFO
IDs: Format: Raw Decoded Include TAF

Data at: 1933 UTC 17 Jul 2018

METAR for:KUNI (Albany/Ohio Univ Arp, OH, US)
Text:KUNI 171915Z AUTO 32009G15KT 300V360 10SM CLR 29/13 A2994 RMK AO2 T02940125
Temperature: 29.4°C ( 85°F)
Dewpoint: 12.5°C ( 54°F) [RH = 35%]
Pressure (altimeter):29.94 inches Hg (1014.0 mb)
Winds:from the NW (320 degrees) at 10 MPH (9 knots; 4.6 m/s) gusting to 17 MPH (15 knots; 7.7 m/s)
Visibility:10 or more sm (16+ km)
Ceiling:at least 12,000 feet AGL
Clouds:sky clear below 12,000 feet AGL
QC Flag:automated observation with no human augmentation